createdAt,value
2019-04-26T00:00:11.962Z,47.60
2019-04-26T00:02:44.797Z,47.30
2019-04-26T00:05:14.445Z,47.30
2019-04-26T00:07:44.163Z,47.40
2019-04-26T00:10:18.125Z,47.40
2019-04-26T00:15:48.416Z,47.40
2019-04-26T00:18:18.714Z,47.50
2019-04-26T00:20:48.075Z,47.40
2019-04-26T00:23:18.278Z,47.50
2019-04-26T00:25:47.564Z,47.60
2019-04-26T00:28:17.012Z,47.70
2019-04-26T00:30:47.056Z,47.70
2019-04-26T00:33:17.217Z,47.60
2019-04-26T00:35:48.043Z,47.60
2019-04-26T00:38:18.196Z,47.50
2019-04-26T00:40:47.751Z,47.50
2019-04-26T00:43:17.002Z,47.60
2019-04-26T00:45:46.236Z,47.60
2019-04-26T00:48:15.486Z,47.60
2019-04-26T00:50:44.725Z,47.60
2019-04-26T00:53:15.921Z,47.60
2019-04-26T00:55:45.258Z,47.30
2019-04-26T00:58:15.373Z,47.60
2019-04-26T01:00:45.435Z,47.70
2019-04-26T01:03:16.625Z,47.50
2019-04-26T01:05:45.972Z,47.50
2019-04-26T01:08:15.806Z,47.50
2019-04-26T01:10:45.155Z,47.60
2019-04-26T01:13:15.334Z,47.60
2019-04-26T01:15:45.256Z,47.60
2019-04-26T01:18:14.509Z,47.60
2019-04-26T01:20:43.763Z,47.70
2019-04-26T01:23:13.080Z,47.70
2019-04-26T01:25:54.269Z,47.60
2019-04-26T01:28:35.896Z,47.50
2019-04-26T01:31:07.755Z,47.50
2019-04-26T01:33:37.648Z,47.50
2019-04-26T01:36:13.231Z,47.40
2019-04-26T01:38:38.559Z,47.40
2019-04-26T01:41:10.823Z,47.50
2019-04-26T01:43:47.876Z,47.50
2019-04-26T01:46:22.151Z,47.50
2019-04-26T01:49:00.412Z,47.50
2019-04-26T01:51:35.563Z,47.50
2019-04-26T01:54:04.883Z,47.40
2019-04-26T01:56:35.683Z,47.40
2019-04-26T01:59:06.175Z,47.50
2019-04-26T02:01:53.660Z,47.50
2019-04-26T02:04:25.693Z,47.50
2019-04-26T02:06:55.196Z,47.60
2019-04-26T02:09:24.435Z,47.60
2019-04-26T02:11:53.688Z,47.60
2019-04-26T02:14:23.850Z,47.60
2019-04-26T02:16:53.983Z,47.60
2019-04-26T02:19:24.391Z,47.60
2019-04-26T02:21:58.643Z,47.50
2019-04-26T02:24:30.125Z,47.60
2019-04-26T02:26:59.964Z,47.60
2019-04-26T02:29:29.227Z,47.60
2019-04-26T02:32:01.221Z,47.60
2019-04-26T02:34:31.756Z,47.60
2019-04-26T02:37:01.981Z,47.60
2019-04-26T02:39:35.973Z,47.70
2019-04-26T02:42:07.300Z,48.30
2019-04-26T02:44:40.617Z,47.70
2019-04-26T02:47:30.916Z,47.70
2019-04-26T02:50:06.977Z,47.70
2019-04-26T02:52:57.576Z,47.70
2019-04-26T02:56:03.174Z,47.70
2019-04-26T02:58:41.660Z,47.70
2019-04-26T03:01:10.919Z,47.70
2019-04-26T03:03:40.157Z,47.70
2019-04-26T03:06:09.453Z,47.70
2019-04-26T03:08:39.385Z,47.80
2019-04-26T03:11:11.564Z,47.80
2019-04-26T03:13:43.688Z,47.80
2019-04-26T03:16:15.554Z,47.80
2019-04-26T03:18:50.764Z,47.80
2019-04-26T03:21:33.869Z,47.80
2019-04-26T03:24:11.708Z,47.70
2019-04-26T03:27:09.866Z,47.70
2019-04-26T03:29:45.320Z,47.70
2019-04-26T03:32:33.852Z,47.80
2019-04-26T03:35:24.044Z,47.80
2019-04-26T03:38:01.087Z,47.70
2019-04-26T03:40:42.433Z,47.70
2019-04-26T03:43:49.909Z,47.80
2019-04-26T03:46:43.817Z,47.80
2019-04-26T03:49:45.883Z,47.90
2019-04-26T03:52:37.933Z,47.80
2019-04-26T03:55:34.587Z,47.80
2019-04-26T03:58:14.612Z,47.80
2019-04-26T04:00:47.039Z,47.90
2019-04-26T04:03:38.282Z,47.90
2019-04-26T04:06:10.025Z,47.80
2019-04-26T04:08:59.872Z,47.80
2019-04-26T04:11:43.018Z,47.80
2019-04-26T04:14:20.963Z,47.80
2019-04-26T04:16:55.144Z,47.80
2019-04-26T04:19:57.691Z,47.80
2019-04-26T04:22:30.204Z,48.00
2019-04-26T04:25:08.615Z,48.00
2019-04-26T04:27:41.825Z,47.90
2019-04-26T04:30:18.114Z,48.00
2019-04-26T04:33:08.342Z,48.60
2019-04-26T04:35:42.338Z,48.00
2019-04-26T04:38:15.026Z,48.10
2019-04-26T04:41:13.981Z,48.00
2019-04-26T04:44:02.907Z,48.00
2019-04-26T04:47:22.915Z,48.00
2019-04-26T04:50:04.504Z,48.00
2019-04-26T04:52:39.459Z,48.00
2019-04-26T04:55:30.255Z,48.00
2019-04-26T04:58:08.398Z,48.20
2019-04-26T05:01:14.171Z,48.20
2019-04-26T05:04:05.823Z,48.20
2019-04-26T05:07:09.830Z,48.10
2019-04-26T05:09:45.311Z,48.00
2019-04-26T05:12:20.500Z,48.10
2019-04-26T05:15:06.791Z,48.20
2019-04-26T05:17:56.800Z,48.20
2019-04-26T05:20:28.995Z,48.20
2019-04-26T05:23:19.827Z,48.20
2019-04-26T05:26:08.940Z,48.20
2019-04-26T05:29:02.772Z,48.20
2019-04-26T05:31:45.891Z,48.20
2019-04-26T05:34:39.360Z,48.20
2019-04-26T05:37:37.249Z,48.20
2019-04-26T05:40:21.826Z,48.20
2019-04-26T05:43:19.831Z,48.20
2019-04-26T05:46:06.040Z,48.30
2019-04-26T05:49:09.912Z,48.30
2019-04-26T05:52:13.546Z,48.40
2019-04-26T05:54:58.482Z,48.40
2019-04-26T05:57:32.619Z,48.50
2019-04-26T06:00:23.360Z,48.50
2019-04-26T06:03:32.678Z,48.50
2019-04-26T06:06:24.793Z,48.40
2019-04-26T06:09:18.095Z,48.50
2019-04-26T06:12:12.395Z,48.50
2019-04-26T06:15:10.991Z,48.50
2019-04-26T06:18:00.321Z,48.50
2019-04-26T06:20:32.842Z,48.50
2019-04-26T06:23:14.413Z,48.50
2019-04-26T06:26:29.363Z,48.50
2019-04-26T06:29:24.156Z,48.50
2019-04-26T06:32:00.417Z,48.50
2019-04-26T06:34:35.847Z,48.50
2019-04-26T06:37:15.836Z,48.50
2019-04-26T06:40:13.953Z,48.50
2019-04-26T06:43:06.792Z,48.40
2019-04-26T06:45:58.592Z,48.40
2019-04-26T06:48:54.619Z,48.50
2019-04-26T06:51:49.128Z,48.50
2019-04-26T06:54:31.696Z,48.40
2019-04-26T06:57:22.429Z,48.50
2019-04-26T07:00:14.465Z,48.50
2019-04-26T07:03:10.399Z,48.60
2019-04-26T07:05:46.273Z,48.70
2019-04-26T07:08:22.479Z,48.60
2019-04-26T07:11:13.013Z,48.70
2019-04-26T07:14:00.750Z,48.70
2019-04-26T07:16:54.473Z,48.60
2019-04-26T07:19:50.613Z,48.80
2019-04-26T07:22:39.580Z,48.90
2019-04-26T07:25:28.284Z,48.70
2019-04-26T07:28:12.925Z,48.60
2019-04-26T07:31:11.355Z,48.60
2019-04-26T07:34:03.566Z,48.70
2019-04-26T07:36:39.388Z,48.70
2019-04-26T07:39:20.178Z,48.70
2019-04-26T07:41:57.196Z,48.70
2019-04-26T07:44:50.663Z,48.70
2019-04-26T07:47:52.881Z,48.70
2019-04-26T07:50:29.109Z,48.70
2019-04-26T07:53:13.430Z,48.80
2019-04-26T07:56:05.009Z,48.70
2019-04-26T07:58:56.928Z,48.80
2019-04-26T08:01:51.697Z,48.80
2019-04-26T08:04:34.048Z,48.80
2019-04-26T08:07:10.361Z,48.80
2019-04-26T08:09:46.151Z,48.80
2019-04-26T08:12:15.084Z,48.90
2019-04-26T08:14:49.056Z,48.90
2019-04-26T08:17:25.712Z,48.80
2019-04-26T08:20:22.341Z,48.80
2019-04-26T08:22:54.841Z,48.80
2019-04-26T08:25:24.561Z,48.90
2019-04-26T08:27:54.415Z,48.90
2019-04-26T08:30:23.678Z,48.90
2019-04-26T08:32:55.834Z,48.90
2019-04-26T08:35:27.666Z,48.90
2019-04-26T08:37:59.027Z,48.90
2019-04-26T08:40:31.210Z,48.90
2019-04-26T08:43:00.803Z,48.80
2019-04-26T08:45:32.517Z,48.90
2019-04-26T08:48:12.661Z,48.80
2019-04-26T08:50:45.857Z,48.80
2019-04-26T08:53:15.672Z,48.90
2019-04-26T08:55:45.351Z,48.90
2019-04-26T08:58:14.533Z,48.90
2019-04-26T09:00:48.232Z,48.90
2019-04-26T09:03:22.091Z,48.90
2019-04-26T09:06:02.204Z,48.90
2019-04-26T09:08:34.327Z,48.80
2019-04-26T09:11:03.512Z,48.90
2019-04-26T09:13:35.034Z,48.80
2019-04-26T09:16:06.945Z,48.90
2019-04-26T09:18:42.916Z,48.90
2019-04-26T09:21:07.503Z,48.90
2019-04-26T09:23:50.809Z,49.00
2019-04-26T09:26:19.940Z,48.90
2019-04-26T09:28:52.858Z,48.90
2019-04-26T09:31:29.299Z,48.90
2019-04-26T09:34:01.476Z,48.90
2019-04-26T09:36:30.856Z,48.90
2019-04-26T09:39:00.045Z,48.80
2019-04-26T09:41:30.788Z,48.70
2019-04-26T09:44:18.328Z,48.60
2019-04-26T09:47:02.453Z,48.70
2019-04-26T09:49:33.331Z,48.80
2019-04-26T09:52:03.363Z,48.90
2019-04-26T09:54:32.620Z,49.00
2019-04-26T09:57:01.883Z,49.10
2019-04-26T09:59:31.144Z,49.00
2019-04-26T10:02:00.451Z,49.00
2019-04-26T10:04:29.709Z,49.00
2019-04-26T10:06:59.522Z,49.00
2019-04-26T10:09:30.940Z,49.00
2019-04-26T10:12:07.831Z,48.90
2019-04-26T10:14:51.179Z,48.90
2019-04-26T10:17:24.827Z,48.80
2019-04-26T10:19:55.177Z,48.80
2019-04-26T10:22:25.982Z,48.80
2019-04-26T10:24:55.611Z,48.80
2019-04-26T10:27:24.964Z,48.90
2019-04-26T10:29:56.604Z,48.80
2019-04-26T10:32:26.248Z,48.70
2019-04-26T10:34:56.048Z,48.70
2019-04-26T10:37:25.293Z,48.70
2019-04-26T10:39:55.621Z,48.70
2019-04-26T10:42:24.953Z,48.70
2019-04-26T10:44:54.260Z,48.80
2019-04-26T10:47:23.516Z,48.70
2019-04-26T10:49:54.343Z,48.70
2019-04-26T10:52:25.280Z,48.70
2019-04-26T10:54:59.120Z,48.70
2019-04-26T10:57:30.019Z,48.70
2019-04-26T11:00:00.990Z,48.70
2019-04-26T11:02:30.499Z,48.70
2019-04-26T11:04:59.681Z,48.70
2019-04-26T11:07:28.923Z,48.70
2019-04-26T11:09:58.113Z,48.70
2019-04-26T11:12:27.351Z,48.70
2019-04-26T11:14:57.102Z,48.70
2019-04-26T11:17:27.568Z,48.70
2019-04-26T11:19:57.888Z,48.70
2019-04-26T11:22:29.279Z,48.70
2019-04-26T11:24:58.019Z,48.60
2019-04-26T11:27:27.205Z,48.60
2019-04-26T11:30:00.050Z,48.50
2019-04-26T11:32:27.595Z,48.60
2019-04-26T11:34:58.770Z,48.50
2019-04-26T11:37:27.643Z,48.40
2019-04-26T11:39:56.906Z,48.50
2019-04-26T11:42:26.228Z,48.30
2019-04-26T11:45:05.636Z,48.30
2019-04-26T11:47:26.466Z,48.40
2019-04-26T11:49:55.715Z,48.40
2019-04-26T11:52:25.073Z,48.00
2019-04-26T11:54:55.233Z,49.00
2019-04-26T11:57:25.192Z,48.40
2019-04-26T11:59:54.437Z,48.30
2019-04-26T12:02:24.060Z,48.30
2019-04-26T12:04:55.120Z,48.30
2019-04-26T12:07:29.281Z,48.20
2019-04-26T12:10:09.935Z,48.30
2019-04-26T12:12:43.106Z,48.30
2019-04-26T12:15:10.952Z,48.30
2019-04-26T12:17:40.263Z,48.30
2019-04-26T12:20:09.520Z,48.30
2019-04-26T12:22:39.393Z,48.30
2019-04-26T12:25:09.635Z,48.30
2019-04-26T12:27:38.961Z,48.30
2019-04-26T12:30:08.340Z,48.30
2019-04-26T12:32:37.660Z,48.90
2019-04-26T12:35:07.028Z,48.40
2019-04-26T12:37:36.276Z,48.30
2019-04-26T12:40:11.290Z,48.30
2019-04-26T12:42:38.519Z,48.30
2019-04-26T12:45:12.154Z,48.20
2019-04-26T12:47:41.937Z,48.20
2019-04-26T12:50:11.192Z,48.20
2019-04-26T12:52:40.826Z,48.20
2019-04-26T12:55:13.997Z,48.30
2019-04-26T12:57:42.386Z,48.30
2019-04-26T13:00:14.547Z,48.30
2019-04-26T13:02:44.100Z,48.40
2019-04-26T13:05:14.512Z,48.50
2019-04-26T13:07:46.121Z,48.30
2019-04-26T13:10:35.389Z,48.40
2019-04-26T13:13:18.204Z,48.50
2019-04-26T13:15:53.948Z,48.40
2019-04-26T13:18:23.195Z,48.60
2019-04-26T13:20:52.453Z,48.60
2019-04-26T13:23:25.265Z,48.50
2019-04-26T13:25:55.484Z,48.50
2019-04-26T13:28:23.464Z,48.60
2019-04-26T13:30:52.709Z,48.60
2019-04-26T13:33:23.297Z,48.50
2019-04-26T13:36:02.739Z,48.50
2019-04-26T13:38:23.720Z,48.50
2019-04-26T13:40:52.971Z,48.50
2019-04-26T13:43:22.703Z,48.50
2019-04-26T13:46:03.476Z,48.50
2019-04-26T13:48:45.051Z,48.50
2019-04-26T13:51:15.875Z,48.40
2019-04-26T13:53:45.120Z,48.40
2019-04-26T13:56:14.683Z,48.40
2019-04-26T13:58:43.924Z,48.40
2019-04-26T14:01:14.515Z,48.40
2019-04-26T14:03:44.067Z,48.40
2019-04-26T14:06:13.320Z,48.50
2019-04-26T14:08:42.575Z,48.60
2019-04-26T14:11:11.831Z,48.50
2019-04-26T14:13:41.088Z,48.60
2019-04-26T14:16:10.335Z,48.50
2019-04-26T14:18:40.801Z,48.60
2019-04-26T14:21:10.272Z,48.60
2019-04-26T14:23:57.700Z,48.60
2019-04-26T14:26:28.602Z,48.70
2019-04-26T14:28:59.430Z,48.70
2019-04-26T14:31:28.711Z,48.70
2019-04-26T14:34:01.297Z,48.70
2019-04-26T14:36:28.845Z,48.70
2019-04-26T14:39:05.602Z,48.80
2019-04-26T14:41:29.026Z,48.80
2019-04-26T14:43:58.495Z,48.80
2019-04-26T14:46:27.676Z,48.80
2019-04-26T14:49:02.779Z,48.80
2019-04-26T14:51:27.793Z,48.70
2019-04-26T14:53:57.044Z,48.80
2019-04-26T14:56:29.237Z,48.70
2019-04-26T14:58:57.176Z,48.70
2019-04-26T15:01:36.856Z,48.70
2019-04-26T15:04:28.166Z,48.70
2019-04-26T15:06:58.206Z,48.70
2019-04-26T15:09:33.297Z,48.70
2019-04-26T15:12:01.345Z,48.60
2019-04-26T15:14:29.813Z,48.60
2019-04-26T15:16:59.028Z,48.60
2019-04-26T15:19:28.268Z,48.60
2019-04-26T15:21:57.892Z,48.60
2019-04-26T15:24:30.062Z,48.70
2019-04-26T15:27:01.519Z,48.70
2019-04-26T15:29:28.953Z,48.60
2019-04-26T15:31:58.325Z,48.70
2019-04-26T15:34:27.912Z,48.70
2019-04-26T15:36:57.168Z,48.70
2019-04-26T15:39:44.482Z,48.70
2019-04-26T15:42:23.774Z,48.70
2019-04-26T15:45:01.785Z,48.80
2019-04-26T15:47:42.250Z,48.80
2019-04-26T15:50:13.095Z,48.80
2019-04-26T15:52:43.895Z,48.80
2019-04-26T15:55:13.382Z,48.80
2019-04-26T15:57:43.321Z,48.80
2019-04-26T16:00:12.891Z,48.80
2019-04-26T16:02:42.704Z,48.80
2019-04-26T16:05:12.435Z,48.70
2019-04-26T16:07:42.989Z,48.80
2019-04-26T16:10:12.403Z,48.80
2019-04-26T16:12:42.273Z,48.80
2019-04-26T16:15:14.680Z,48.80
2019-04-26T16:17:42.627Z,48.90
2019-04-26T16:20:13.406Z,48.90
2019-04-26T16:22:43.139Z,48.90
2019-04-26T16:25:12.400Z,48.90
2019-04-26T16:27:43.020Z,48.90
2019-04-26T16:30:32.571Z,48.90
2019-04-26T16:33:15.698Z,48.90
2019-04-26T16:35:44.951Z,49.00
2019-04-26T16:38:33.084Z,48.90
2019-04-26T16:41:03.339Z,48.90
2019-04-26T16:43:37.672Z,48.90
2019-04-26T16:46:04.812Z,48.90
2019-04-26T16:48:34.047Z,48.90
2019-04-26T16:51:08.530Z,48.90
2019-04-26T16:53:46.406Z,48.90
2019-04-26T16:56:05.035Z,48.90
2019-04-26T16:58:38.279Z,48.90
2019-04-26T17:01:10.121Z,49.00
2019-04-26T17:03:38.209Z,49.00
2019-04-26T17:06:11.510Z,49.00
2019-04-26T17:08:42.890Z,49.10
2019-04-26T17:11:08.660Z,48.90
2019-04-26T17:13:48.336Z,48.90
2019-04-26T17:16:08.784Z,48.90
2019-04-26T17:18:38.042Z,48.90
2019-04-26T17:21:07.631Z,48.90
2019-04-26T17:23:47.531Z,48.90
2019-04-26T17:26:22.409Z,48.90
2019-04-26T17:28:54.071Z,48.90
2019-04-26T17:31:22.894Z,48.90
2019-04-26T17:33:52.409Z,48.90
2019-04-26T17:36:21.668Z,48.90
2019-04-26T17:38:50.922Z,48.90
2019-04-26T17:41:20.164Z,48.90
2019-04-26T17:43:53.321Z,49.50
2019-04-26T17:46:21.633Z,48.80
2019-04-26T17:48:51.284Z,48.80
2019-04-26T17:51:23.119Z,48.80
2019-04-26T17:54:18.451Z,48.80
2019-04-26T17:56:26.074Z,48.80
2019-04-26T17:58:54.731Z,48.80
2019-04-26T18:01:41.885Z,48.80
2019-04-26T18:03:56.788Z,48.80
2019-04-26T18:06:29.897Z,48.80
2019-04-26T18:08:56.865Z,48.90
2019-04-26T18:11:26.112Z,48.80
2019-04-26T18:13:55.942Z,48.80
2019-04-26T18:16:29.437Z,48.80
2019-04-26T18:18:57.776Z,48.80
2019-04-26T18:21:37.639Z,48.80
2019-04-26T18:24:06.894Z,48.70
2019-04-26T18:26:36.184Z,48.70
2019-04-26T18:29:05.435Z,48.70
2019-04-26T18:31:34.691Z,48.60
2019-04-26T18:34:04.241Z,48.60
2019-04-26T18:36:33.604Z,48.70
2019-04-26T18:39:03.851Z,48.70
2019-04-26T18:41:34.096Z,48.70
2019-04-26T18:44:04.573Z,48.70
2019-04-26T18:46:46.898Z,49.10
2019-04-26T18:49:18.197Z,48.70
2019-04-26T18:51:48.103Z,48.70
2019-04-26T18:54:25.740Z,48.70
2019-04-26T18:56:56.660Z,48.70
2019-04-26T18:59:27.859Z,48.70
2019-04-26T19:01:56.913Z,48.70
2019-04-26T19:04:27.225Z,48.70
2019-04-26T19:06:56.476Z,49.10
2019-04-26T19:09:27.353Z,48.60
2019-04-26T19:11:56.680Z,48.60
2019-04-26T19:14:49.274Z,48.70
2019-04-26T19:17:14.987Z,48.70
2019-04-26T19:19:45.868Z,48.70
2019-04-26T19:22:16.997Z,48.80
2019-04-26T19:24:49.449Z,48.80
2019-04-26T19:27:22.342Z,48.80
2019-04-26T19:29:48.388Z,48.80
2019-04-26T19:32:17.885Z,48.80
2019-04-26T19:34:47.195Z,48.70
2019-04-26T19:37:16.449Z,48.80
2019-04-26T19:39:45.763Z,48.80
2019-04-26T19:42:14.927Z,48.90
2019-04-26T19:44:44.181Z,48.90
2019-04-26T19:47:15.079Z,48.80
2019-04-26T19:49:45.972Z,48.80
2019-04-26T19:52:22.688Z,48.80
2019-04-26T19:54:56.403Z,48.70
2019-04-26T19:57:27.300Z,48.70
2019-04-26T19:59:56.540Z,48.70
2019-04-26T20:02:26.811Z,48.70
2019-04-26T20:04:56.888Z,48.70
2019-04-26T20:07:28.270Z,48.70
2019-04-26T20:10:02.622Z,48.80
2019-04-26T20:12:29.535Z,48.80
2019-04-26T20:14:58.753Z,48.80
2019-04-26T20:17:27.988Z,48.80
2019-04-26T20:19:57.317Z,48.90
2019-04-26T20:22:29.844Z,48.90
2019-04-26T20:24:58.399Z,48.90
2019-04-26T20:27:27.992Z,48.90
2019-04-26T20:29:57.797Z,48.90
2019-04-26T20:32:28.867Z,48.90
2019-04-26T20:35:13.215Z,48.90
2019-04-26T20:37:45.156Z,49.40
2019-04-26T20:40:20.245Z,48.90
2019-04-26T20:42:45.830Z,48.90
2019-04-26T20:45:16.949Z,48.90
2019-04-26T20:47:46.802Z,48.80
2019-04-26T20:50:16.811Z,48.90
2019-04-26T20:52:46.068Z,48.80
2019-04-26T20:55:15.320Z,48.80
2019-04-26T20:57:44.885Z,48.80
2019-04-26T21:00:14.548Z,48.80
2019-04-26T21:02:44.161Z,48.90
2019-04-26T21:05:14.840Z,48.80
2019-04-26T21:07:49.139Z,48.70
2019-04-26T21:10:21.953Z,48.70
2019-04-26T21:12:47.331Z,48.70
2019-04-26T21:15:20.244Z,48.70
2019-04-26T21:17:48.007Z,48.70
2019-04-26T21:20:17.263Z,48.60
2019-04-26T21:22:46.521Z,48.60
2019-04-26T21:25:23.428Z,48.60
2019-04-26T21:27:57.338Z,48.60
2019-04-26T21:30:44.727Z,48.50
2019-04-26T21:33:15.622Z,48.50
2019-04-26T21:35:57.668Z,48.40
2019-04-26T21:38:40.148Z,48.40
2019-04-26T21:41:23.560Z,48.50
2019-04-26T21:43:53.361Z,48.50
2019-04-26T21:46:24.045Z,48.50
2019-04-26T21:48:53.587Z,48.50
2019-04-26T21:51:23.043Z,48.50
2019-04-26T21:53:52.973Z,48.60
2019-04-26T21:56:23.520Z,48.60
2019-04-26T21:58:53.388Z,48.70
2019-04-26T22:01:25.120Z,48.60
2019-04-26T22:03:58.298Z,48.60
2019-04-26T22:06:28.775Z,48.60
2019-04-26T22:08:59.379Z,48.50
2019-04-26T22:11:29.115Z,48.50
2019-04-26T22:13:59.923Z,48.40
2019-04-26T22:16:47.057Z,48.40
2019-04-26T22:19:23.281Z,48.40
2019-04-26T22:21:59.407Z,48.40
2019-04-26T22:24:33.785Z,48.40
2019-04-26T22:27:03.854Z,48.30
2019-04-26T22:29:34.276Z,48.40
2019-04-26T22:32:03.731Z,48.40
2019-04-26T22:34:33.076Z,48.40
2019-04-26T22:37:11.576Z,48.40
2019-04-26T22:39:39.999Z,48.40
2019-04-26T22:42:04.387Z,48.40
2019-04-26T22:44:35.284Z,48.40
2019-04-26T22:47:09.926Z,48.40
2019-04-26T22:49:41.621Z,48.40
2019-04-26T22:52:11.150Z,48.40
2019-04-26T22:54:42.935Z,48.40
2019-04-26T22:57:13.092Z,48.40
2019-04-26T22:59:49.578Z,48.40
2019-04-26T23:02:18.410Z,48.40
2019-04-26T23:04:45.878Z,48.40
2019-04-26T23:07:18.518Z,48.40
2019-04-26T23:09:51.800Z,48.30
2019-04-26T23:12:27.844Z,48.30
2019-04-26T23:14:57.543Z,48.90
2019-04-26T23:17:34.412Z,48.30
2019-04-26T23:20:09.736Z,48.20
2019-04-26T23:22:39.044Z,48.20
2019-04-26T23:25:08.295Z,48.20
2019-04-26T23:27:37.473Z,48.20
2019-04-26T23:30:07.099Z,48.20
2019-04-26T23:32:36.372Z,48.20
2019-04-26T23:35:06.243Z,48.10
2019-04-26T23:37:35.635Z,48.10
2019-04-26T23:40:05.785Z,48.10
2019-04-26T23:42:35.031Z,48.10
2019-04-26T23:45:05.235Z,48.20
2019-04-26T23:47:37.380Z,48.10
2019-04-26T23:50:06.311Z,48.10
2019-04-26T23:52:35.679Z,48.10
2019-04-26T23:55:08.756Z,48.10
2019-04-26T23:57:36.836Z,48.10
